sensor_id;sensor_type;location;lat;lon;timestamp;P1;durP1;ratioP1;P2;durP2;ratioP2
78740;SDS011;68062;48.726;9.370;2023-07-29T00:01:57;2.77;;;2.47;;
78740;SDS011;68062;48.726;9.370;2023-07-29T00:04:24;3.13;;;2.40;;
78740;SDS011;68062;48.726;9.370;2023-07-29T00:06:52;4.20;;;2.70;;
78740;SDS011;68062;48.726;9.370;2023-07-29T00:09:18;5.93;;;2.17;;
78740;SDS011;68062;48.726;9.370;2023-07-29T00:11:45;3.63;;;2.70;;
78740;SDS011;68062;48.726;9.370;2023-07-29T00:14:11;2.60;;;2.40;;
78740;SDS011;68062;48.726;9.370;2023-07-29T00:16:38;2.50;;;2.03;;
78740;SDS011;68062;48.726;9.370;2023-07-29T00:19:04;3.93;;;2.43;;
78740;SDS011;68062;48.726;9.370;2023-07-29T00:21:31;2.20;;;2.00;;
78740;SDS011;68062;48.726;9.370;2023-07-29T00:23:59;2.60;;;2.03;;
78740;SDS011;68062;48.726;9.370;2023-07-29T00:26:26;3.20;;;1.90;;
78740;SDS011;68062;48.726;9.370;2023-07-29T00:28:54;2.17;;;2.00;;
78740;SDS011;68062;48.726;9.370;2023-07-29T00:31:20;2.73;;;2.20;;
78740;SDS011;68062;48.726;9.370;2023-07-29T00:33:47;4.00;;;2.50;;
78740;SDS011;68062;48.726;9.370;2023-07-29T00:36:13;2.87;;;2.53;;
78740;SDS011;68062;48.726;9.370;2023-07-29T00:38:40;4.40;;;2.67;;
78740;SDS011;68062;48.726;9.370;2023-07-29T00:41:08;4.30;;;1.70;;
78740;SDS011;68062;48.726;9.370;2023-07-29T00:43:38;5.43;;;2.73;;
78740;SDS011;68062;48.726;9.370;2023-07-29T00:46:04;4.23;;;1.97;;
78740;SDS011;68062;48.726;9.370;2023-07-29T00:48:35;4.03;;;2.53;;
78740;SDS011;68062;48.726;9.370;2023-07-29T00:51:02;2.50;;;2.33;;
78740;SDS011;68062;48.726;9.370;2023-07-29T00:53:28;3.20;;;1.97;;
78740;SDS011;68062;48.726;9.370;2023-07-29T00:55:55;2.10;;;1.97;;
78740;SDS011;68062;48.726;9.370;2023-07-29T00:58:23;2.80;;;2.33;;
78740;SDS011;68062;48.726;9.370;2023-07-29T01:00:50;4.57;;;2.73;;
78740;SDS011;68062;48.726;9.370;2023-07-29T01:03:16;3.37;;;2.13;;
78740;SDS011;68062;48.726;9.370;2023-07-29T01:05:46;3.00;;;1.80;;
78740;SDS011;68062;48.726;9.370;2023-07-29T01:08:22;2.97;;;2.20;;
78740;SDS011;68062;48.726;9.370;2023-07-29T01:10:58;3.73;;;2.40;;
78740;SDS011;68062;48.726;9.370;2023-07-29T01:13:33;3.97;;;2.63;;
78740;SDS011;68062;48.726;9.370;2023-07-29T01:16:08;3.80;;;2.47;;
78740;SDS011;68062;48.726;9.370;2023-07-29T01:18:40;4.80;;;2.70;;
78740;SDS011;68062;48.726;9.370;2023-07-29T01:21:09;3.13;;;2.23;;
78740;SDS011;68062;48.726;9.370;2023-07-29T01:23:40;2.57;;;2.37;;
78740;SDS011;68062;48.726;9.370;2023-07-29T01:26:07;3.50;;;2.70;;
78740;SDS011;68062;48.726;9.370;2023-07-29T01:28:33;3.03;;;2.47;;
78740;SDS011;68062;48.726;9.370;2023-07-29T01:31:01;2.63;;;2.43;;
78740;SDS011;68062;48.726;9.370;2023-07-29T01:33:35;2.80;;;2.60;;
78740;SDS011;68062;48.726;9.370;2023-07-29T01:36:07;3.30;;;2.37;;
78740;SDS011;68062;48.726;9.370;2023-07-29T01:38:38;3.67;;;3.47;;
78740;SDS011;68062;48.726;9.370;2023-07-29T01:41:10;3.17;;;2.60;;
78740;SDS011;68062;48.726;9.370;2023-07-29T01:43:37;4.20;;;2.30;;
78740;SDS011;68062;48.726;9.370;2023-07-29T01:46:08;3.40;;;2.23;;
78740;SDS011;68062;48.726;9.370;2023-07-29T01:48:37;3.73;;;2.43;;
78740;SDS011;68062;48.726;9.370;2023-07-29T01:51:04;4.67;;;2.73;;
78740;SDS011;68062;48.726;9.370;2023-07-29T01:53:31;3.17;;;3.03;;
78740;SDS011;68062;48.726;9.370;2023-07-29T01:55:59;2.97;;;2.60;;
78740;SDS011;68062;48.726;9.370;2023-07-29T01:58:26;7.20;;;2.97;;
78740;SDS011;68062;48.726;9.370;2023-07-29T02:00:52;6.70;;;3.63;;
78740;SDS011;68062;48.726;9.370;2023-07-29T02:03:19;4.67;;;3.80;;
78740;SDS011;68062;48.726;9.370;2023-07-29T02:05:45;4.30;;;3.13;;
78740;SDS011;68062;48.726;9.370;2023-07-29T02:08:12;3.80;;;2.70;;
78740;SDS011;68062;48.726;9.370;2023-07-29T02:10:39;2.40;;;1.90;;
78740;SDS011;68062;48.726;9.370;2023-07-29T02:13:07;2.60;;;2.20;;
78740;SDS011;68062;48.726;9.370;2023-07-29T02:15:33;2.33;;;2.00;;
78740;SDS011;68062;48.726;9.370;2023-07-29T02:18:00;2.40;;;2.00;;
78740;SDS011;68062;48.726;9.370;2023-07-29T02:20:28;2.50;;;2.00;;
78740;SDS011;68062;48.726;9.370;2023-07-29T02:22:55;2.67;;;1.87;;
78740;SDS011;68062;48.726;9.370;2023-07-29T02:25:21;4.73;;;2.40;;
78740;SDS011;68062;48.726;9.370;2023-07-29T02:27:48;1.93;;;1.87;;
78740;SDS011;68062;48.726;9.370;2023-07-29T02:30:16;1.97;;;1.87;;
78740;SDS011;68062;48.726;9.370;2023-07-29T02:32:43;2.10;;;1.27;;
78740;SDS011;68062;48.726;9.370;2023-07-29T02:35:09;2.93;;;1.73;;
78740;SDS011;68062;48.726;9.370;2023-07-29T02:37:36;3.03;;;1.67;;
78740;SDS011;68062;48.726;9.370;2023-07-29T02:40:03;2.00;;;1.70;;
78740;SDS011;68062;48.726;9.370;2023-07-29T02:42:31;5.47;;;1.93;;
78740;SDS011;68062;48.726;9.370;2023-07-29T02:44:57;3.53;;;2.23;;
78740;SDS011;68062;48.726;9.370;2023-07-29T02:47:25;2.90;;;2.70;;
78740;SDS011;68062;48.726;9.370;2023-07-29T02:49:52;3.50;;;1.97;;
78740;SDS011;68062;48.726;9.370;2023-07-29T02:52:18;2.53;;;2.37;;
78740;SDS011;68062;48.726;9.370;2023-07-29T02:54:45;3.73;;;2.70;;
78740;SDS011;68062;48.726;9.370;2023-07-29T02:57:13;3.63;;;2.60;;
78740;SDS011;68062;48.726;9.370;2023-07-29T02:59:39;3.10;;;2.57;;
78740;SDS011;68062;48.726;9.370;2023-07-29T03:02:06;3.47;;;2.53;;
78740;SDS011;68062;48.726;9.370;2023-07-29T03:04:35;4.13;;;2.27;;
78740;SDS011;68062;48.726;9.370;2023-07-29T03:07:02;3.70;;;2.20;;
78740;SDS011;68062;48.726;9.370;2023-07-29T03:09:29;2.50;;;2.30;;
78740;SDS011;68062;48.726;9.370;2023-07-29T03:11:56;4.13;;;2.40;;
78740;SDS011;68062;48.726;9.370;2023-07-29T03:14:22;2.70;;;2.33;;
78740;SDS011;68062;48.726;9.370;2023-07-29T03:16:49;2.23;;;2.07;;
78740;SDS011;68062;48.726;9.370;2023-07-29T03:19:15;2.67;;;2.50;;
78740;SDS011;68062;48.726;9.370;2023-07-29T03:21:44;4.17;;;3.33;;
78740;SDS011;68062;48.726;9.370;2023-07-29T03:24:11;2.80;;;2.30;;
78740;SDS011;68062;48.726;9.370;2023-07-29T03:26:37;5.83;;;2.90;;
78740;SDS011;68062;48.726;9.370;2023-07-29T03:29:04;2.77;;;2.20;;
78740;SDS011;68062;48.726;9.370;2023-07-29T03:31:30;3.73;;;2.43;;
78740;SDS011;68062;48.726;9.370;2023-07-29T03:33:57;5.23;;;2.47;;
78740;SDS011;68062;48.726;9.370;2023-07-29T03:36:24;3.40;;;2.37;;
78740;SDS011;68062;48.726;9.370;2023-07-29T03:38:52;3.53;;;2.13;;
78740;SDS011;68062;48.726;9.370;2023-07-29T03:41:18;2.97;;;2.20;;
78740;SDS011;68062;48.726;9.370;2023-07-29T03:43:45;4.57;;;2.87;;
78740;SDS011;68062;48.726;9.370;2023-07-29T03:46:11;5.50;;;2.87;;
78740;SDS011;68062;48.726;9.370;2023-07-29T03:48:39;3.07;;;1.77;;
78740;SDS011;68062;48.726;9.370;2023-07-29T03:51:06;5.77;;;2.30;;
78740;SDS011;68062;48.726;9.370;2023-07-29T03:53:32;4.10;;;2.40;;
78740;SDS011;68062;48.726;9.370;2023-07-29T03:56:00;2.37;;;2.20;;
78740;SDS011;68062;48.726;9.370;2023-07-29T03:58:27;2.30;;;2.10;;
78740;SDS011;68062;48.726;9.370;2023-07-29T04:00:54;3.13;;;2.43;;
78740;SDS011;68062;48.726;9.370;2023-07-29T04:03:20;2.30;;;2.10;;
78740;SDS011;68062;48.726;9.370;2023-07-29T04:05:48;2.43;;;2.20;;
78740;SDS011;68062;48.726;9.370;2023-07-29T04:08:14;2.17;;;2.07;;
78740;SDS011;68062;48.726;9.370;2023-07-29T04:10:41;1.80;;;1.67;;
78740;SDS011;68062;48.726;9.370;2023-07-29T04:13:09;3.33;;;2.20;;
78740;SDS011;68062;48.726;9.370;2023-07-29T04:15:35;2.97;;;1.80;;
78740;SDS011;68062;48.726;9.370;2023-07-29T04:18:02;5.33;;;2.50;;
78740;SDS011;68062;48.726;9.370;2023-07-29T04:20:29;2.17;;;2.00;;
78740;SDS011;68062;48.726;9.370;2023-07-29T04:22:55;3.47;;;1.97;;
78740;SDS011;68062;48.726;9.370;2023-07-29T04:25:22;2.60;;;1.90;;
78740;SDS011;68062;48.726;9.370;2023-07-29T04:27:49;3.27;;;2.53;;
78740;SDS011;68062;48.726;9.370;2023-07-29T04:30:16;5.63;;;3.23;;
78740;SDS011;68062;48.726;9.370;2023-07-29T04:32:43;2.20;;;1.97;;
78740;SDS011;68062;48.726;9.370;2023-07-29T04:35:10;4.00;;;2.40;;
78740;SDS011;68062;48.726;9.370;2023-07-29T04:37:36;2.90;;;2.63;;
78740;SDS011;68062;48.726;9.370;2023-07-29T04:40:03;2.83;;;1.80;;
78740;SDS011;68062;48.726;9.370;2023-07-29T04:42:30;2.77;;;2.30;;
78740;SDS011;68062;48.726;9.370;2023-07-29T04:44:57;2.57;;;2.40;;
78740;SDS011;68062;48.726;9.370;2023-07-29T04:47:25;2.20;;;2.03;;
78740;SDS011;68062;48.726;9.370;2023-07-29T04:49:51;3.20;;;2.47;;
78740;SDS011;68062;48.726;9.370;2023-07-29T04:52:18;3.90;;;2.50;;
78740;SDS011;68062;48.726;9.370;2023-07-29T04:54:45;5.17;;;2.67;;
78740;SDS011;68062;48.726;9.370;2023-07-29T04:57:11;4.10;;;3.10;;
78740;SDS011;68062;48.726;9.370;2023-07-29T04:59:38;4.20;;;3.07;;
78740;SDS011;68062;48.726;9.370;2023-07-29T05:02:05;7.17;;;4.13;;
78740;SDS011;68062;48.726;9.370;2023-07-29T05:04:33;5.57;;;3.00;;
78740;SDS011;68062;48.726;9.370;2023-07-29T05:06:59;4.07;;;3.83;;
78740;SDS011;68062;48.726;9.370;2023-07-29T05:09:26;3.90;;;3.50;;
78740;SDS011;68062;48.726;9.370;2023-07-29T05:11:53;6.27;;;3.60;;
78740;SDS011;68062;48.726;9.370;2023-07-29T05:14:19;5.53;;;3.53;;
78740;SDS011;68062;48.726;9.370;2023-07-29T05:16:46;4.60;;;3.93;;
78740;SDS011;68062;48.726;9.370;2023-07-29T05:19:13;4.30;;;3.70;;
78740;SDS011;68062;48.726;9.370;2023-07-29T05:21:41;4.67;;;3.50;;
78740;SDS011;68062;48.726;9.370;2023-07-29T05:24:08;4.83;;;3.57;;
78740;SDS011;68062;48.726;9.370;2023-07-29T05:26:34;4.90;;;3.40;;
78740;SDS011;68062;48.726;9.370;2023-07-29T05:29:01;4.80;;;3.93;;
78740;SDS011;68062;48.726;9.370;2023-07-29T05:31:29;5.10;;;4.00;;
78740;SDS011;68062;48.726;9.370;2023-07-29T05:33:55;6.03;;;4.17;;
78740;SDS011;68062;48.726;9.370;2023-07-29T05:36:22;6.57;;;4.80;;
78740;SDS011;68062;48.726;9.370;2023-07-29T05:38:50;4.80;;;3.90;;
78740;SDS011;68062;48.726;9.370;2023-07-29T05:41:18;5.13;;;4.27;;
78740;SDS011;68062;48.726;9.370;2023-07-29T05:43:44;3.87;;;3.73;;
78740;SDS011;68062;48.726;9.370;2023-07-29T05:46:12;5.20;;;4.07;;
78740;SDS011;68062;48.726;9.370;2023-07-29T05:48:38;4.33;;;4.03;;
78740;SDS011;68062;48.726;9.370;2023-07-29T05:51:05;5.70;;;4.40;;
78740;SDS011;68062;48.726;9.370;2023-07-29T05:53:32;4.70;;;4.40;;
78740;SDS011;68062;48.726;9.370;2023-07-29T05:56:00;5.07;;;3.70;;
78740;SDS011;68062;48.726;9.370;2023-07-29T05:58:27;7.90;;;3.97;;
78740;SDS011;68062;48.726;9.370;2023-07-29T06:00:56;6.17;;;3.70;;
78740;SDS011;68062;48.726;9.370;2023-07-29T06:03:22;4.13;;;3.90;;
78740;SDS011;68062;48.726;9.370;2023-07-29T06:05:50;4.63;;;3.90;;
78740;SDS011;68062;48.726;9.370;2023-07-29T06:08:17;6.67;;;4.37;;
78740;SDS011;68062;48.726;9.370;2023-07-29T06:10:44;5.50;;;4.43;;
78740;SDS011;68062;48.726;9.370;2023-07-29T06:13:12;4.97;;;4.23;;
78740;SDS011;68062;48.726;9.370;2023-07-29T06:15:38;4.27;;;3.80;;
78740;SDS011;68062;48.726;9.370;2023-07-29T06:18:05;7.17;;;5.03;;
78740;SDS011;68062;48.726;9.370;2023-07-29T06:20:31;5.80;;;4.30;;
78740;SDS011;68062;48.726;9.370;2023-07-29T06:22:58;4.43;;;4.13;;
78740;SDS011;68062;48.726;9.370;2023-07-29T06:25:24;4.33;;;4.03;;
78740;SDS011;68062;48.726;9.370;2023-07-29T06:27:51;6.50;;;3.93;;
78740;SDS011;68062;48.726;9.370;2023-07-29T06:30:19;4.27;;;3.30;;
78740;SDS011;68062;48.726;9.370;2023-07-29T06:32:46;3.73;;;3.20;;
78740;SDS011;68062;48.726;9.370;2023-07-29T06:35:12;3.17;;;3.03;;
78740;SDS011;68062;48.726;9.370;2023-07-29T06:37:39;3.70;;;2.60;;
78740;SDS011;68062;48.726;9.370;2023-07-29T06:40:05;3.83;;;3.27;;
78740;SDS011;68062;48.726;9.370;2023-07-29T06:42:33;4.10;;;2.77;;
78740;SDS011;68062;48.726;9.370;2023-07-29T06:44:59;3.50;;;2.60;;
78740;SDS011;68062;48.726;9.370;2023-07-29T06:47:27;4.57;;;3.20;;
78740;SDS011;68062;48.726;9.370;2023-07-29T06:49:54;4.20;;;2.40;;
78740;SDS011;68062;48.726;9.370;2023-07-29T06:52:21;3.20;;;2.60;;
78740;SDS011;68062;48.726;9.370;2023-07-29T06:54:47;1.90;;;1.80;;
78740;SDS011;68062;48.726;9.370;2023-07-29T06:57:14;2.80;;;2.40;;
78740;SDS011;68062;48.726;9.370;2023-07-29T06:59:40;4.23;;;2.23;;
78740;SDS011;68062;48.726;9.370;2023-07-29T07:02:07;2.70;;;2.50;;
78740;SDS011;68062;48.726;9.370;2023-07-29T07:04:35;5.53;;;2.37;;
78740;SDS011;68062;48.726;9.370;2023-07-29T07:07:01;2.53;;;2.37;;
78740;SDS011;68062;48.726;9.370;2023-07-29T07:09:28;3.10;;;2.23;;
78740;SDS011;68062;48.726;9.370;2023-07-29T07:11:54;4.80;;;3.70;;
78740;SDS011;68062;48.726;9.370;2023-07-29T07:14:21;5.60;;;3.10;;
78740;SDS011;68062;48.726;9.370;2023-07-29T07:16:47;5.43;;;4.37;;
78740;SDS011;68062;48.726;9.370;2023-07-29T07:19:14;5.30;;;3.23;;
78740;SDS011;68062;48.726;9.370;2023-07-29T07:21:42;3.60;;;3.40;;
78740;SDS011;68062;48.726;9.370;2023-07-29T07:24:09;6.00;;;3.80;;
78740;SDS011;68062;48.726;9.370;2023-07-29T07:26:35;8.40;;;4.37;;
78740;SDS011;68062;48.726;9.370;2023-07-29T07:29:02;3.10;;;2.70;;
78740;SDS011;68062;48.726;9.370;2023-07-29T07:31:32;2.57;;;2.20;;
78740;SDS011;68062;48.726;9.370;2023-07-29T07:33:59;2.50;;;1.83;;
78740;SDS011;68062;48.726;9.370;2023-07-29T07:36:27;4.00;;;2.30;;
78740;SDS011;68062;48.726;9.370;2023-07-29T07:38:55;2.47;;;2.30;;
78740;SDS011;68062;48.726;9.370;2023-07-29T07:41:21;3.60;;;2.50;;
78740;SDS011;68062;48.726;9.370;2023-07-29T07:43:49;3.10;;;2.50;;
78740;SDS011;68062;48.726;9.370;2023-07-29T07:46:15;3.53;;;2.03;;
78740;SDS011;68062;48.726;9.370;2023-07-29T07:48:42;5.00;;;2.17;;
78740;SDS011;68062;48.726;9.370;2023-07-29T07:51:11;2.93;;;2.77;;
78740;SDS011;68062;48.726;9.370;2023-07-29T07:53:39;2.33;;;1.47;;
78740;SDS011;68062;48.726;9.370;2023-07-29T07:56:07;2.97;;;1.73;;
78740;SDS011;68062;48.726;9.370;2023-07-29T07:58:34;1.93;;;1.60;;
78740;SDS011;68062;48.726;9.370;2023-07-29T08:01:01;1.13;;;1.00;;
78740;SDS011;68062;48.726;9.370;2023-07-29T08:03:28;3.03;;;1.07;;
78740;SDS011;68062;48.726;9.370;2023-07-29T08:05:54;1.40;;;0.80;;
78740;SDS011;68062;48.726;9.370;2023-07-29T08:08:21;3.20;;;1.30;;
78740;SDS011;68062;48.726;9.370;2023-07-29T08:10:48;2.87;;;1.63;;
78740;SDS011;68062;48.726;9.370;2023-07-29T08:13:15;2.00;;;0.90;;
78740;SDS011;68062;48.726;9.370;2023-07-29T08:15:45;0.90;;;0.90;;
78740;SDS011;68062;48.726;9.370;2023-07-29T08:18:12;1.90;;;1.10;;
78740;SDS011;68062;48.726;9.370;2023-07-29T08:20:38;2.70;;;1.70;;
78740;SDS011;68062;48.726;9.370;2023-07-29T08:23:05;5.10;;;1.63;;
78740;SDS011;68062;48.726;9.370;2023-07-29T08:25:32;1.60;;;1.30;;
78740;SDS011;68062;48.726;9.370;2023-07-29T08:27:59;4.23;;;1.43;;
78740;SDS011;68062;48.726;9.370;2023-07-29T08:30:27;2.07;;;1.30;;
78740;SDS011;68062;48.726;9.370;2023-07-29T08:32:53;1.40;;;1.30;;
78740;SDS011;68062;48.726;9.370;2023-07-29T08:35:20;5.13;;;1.70;;
78740;SDS011;68062;48.726;9.370;2023-07-29T08:37:46;1.17;;;1.07;;
78740;SDS011;68062;48.726;9.370;2023-07-29T08:40:13;2.83;;;1.40;;
78740;SDS011;68062;48.726;9.370;2023-07-29T08:42:39;2.20;;;1.37;;
78740;SDS011;68062;48.726;9.370;2023-07-29T08:45:09;2.07;;;1.73;;
78740;SDS011;68062;48.726;9.370;2023-07-29T08:47:38;2.80;;;1.93;;
78740;SDS011;68062;48.726;9.370;2023-07-29T08:50:05;1.60;;;1.40;;
78740;SDS011;68062;48.726;9.370;2023-07-29T08:52:33;2.87;;;2.10;;
78740;SDS011;68062;48.726;9.370;2023-07-29T08:55:00;3.23;;;2.10;;
78740;SDS011;68062;48.726;9.370;2023-07-29T08:57:27;1.73;;;1.67;;
78740;SDS011;68062;48.726;9.370;2023-07-29T08:59:54;5.17;;;2.50;;
78740;SDS011;68062;48.726;9.370;2023-07-29T09:02:22;3.30;;;1.90;;
78740;SDS011;68062;48.726;9.370;2023-07-29T09:04:50;3.77;;;2.03;;
78740;SDS011;68062;48.726;9.370;2023-07-29T09:07:17;3.47;;;2.27;;
78740;SDS011;68062;48.726;9.370;2023-07-29T09:09:45;3.30;;;2.10;;
78740;SDS011;68062;48.726;9.370;2023-07-29T09:12:11;3.00;;;2.80;;
78740;SDS011;68062;48.726;9.370;2023-07-29T09:14:38;2.30;;;1.80;;
78740;SDS011;68062;48.726;9.370;2023-07-29T09:17:06;2.83;;;2.43;;
78740;SDS011;68062;48.726;9.370;2023-07-29T09:19:33;2.30;;;2.10;;
78740;SDS011;68062;48.726;9.370;2023-07-29T09:22:01;2.30;;;2.10;;
78740;SDS011;68062;48.726;9.370;2023-07-29T09:24:28;2.40;;;1.70;;
78740;SDS011;68062;48.726;9.370;2023-07-29T09:26:57;2.47;;;2.30;;
78740;SDS011;68062;48.726;9.370;2023-07-29T09:29:24;2.70;;;1.83;;
78740;SDS011;68062;48.726;9.370;2023-07-29T09:31:56;3.03;;;2.00;;
78740;SDS011;68062;48.726;9.370;2023-07-29T09:34:46;3.77;;;2.13;;
78740;SDS011;68062;48.726;9.370;2023-07-29T09:37:17;1.60;;;1.50;;
78740;SDS011;68062;48.726;9.370;2023-07-29T09:39:47;4.10;;;2.00;;
78740;SDS011;68062;48.726;9.370;2023-07-29T09:42:17;3.10;;;1.77;;
78740;SDS011;68062;48.726;9.370;2023-07-29T09:44:45;2.03;;;1.50;;
78740;SDS011;68062;48.726;9.370;2023-07-29T09:47:18;3.03;;;1.80;;
78740;SDS011;68062;48.726;9.370;2023-07-29T09:49:46;1.83;;;1.73;;
78740;SDS011;68062;48.726;9.370;2023-07-29T09:52:13;2.83;;;2.27;;
78740;SDS011;68062;48.726;9.370;2023-07-29T09:54:42;2.00;;;1.73;;
78740;SDS011;68062;48.726;9.370;2023-07-29T09:57:10;1.53;;;1.43;;
78740;SDS011;68062;48.726;9.370;2023-07-29T09:59:37;2.07;;;1.37;;
78740;SDS011;68062;48.726;9.370;2023-07-29T10:02:04;2.40;;;2.23;;
78740;SDS011;68062;48.726;9.370;2023-07-29T10:04:31;2.57;;;2.40;;
78740;SDS011;68062;48.726;9.370;2023-07-29T10:06:58;3.93;;;1.90;;
78740;SDS011;68062;48.726;9.370;2023-07-29T10:09:26;4.17;;;2.03;;
78740;SDS011;68062;48.726;9.370;2023-07-29T10:11:55;2.27;;;2.07;;
78740;SDS011;68062;48.726;9.370;2023-07-29T10:14:23;2.67;;;2.03;;
78740;SDS011;68062;48.726;9.370;2023-07-29T10:16:51;2.80;;;2.10;;
78740;SDS011;68062;48.726;9.370;2023-07-29T10:19:18;2.23;;;2.10;;
78740;SDS011;68062;48.726;9.370;2023-07-29T10:21:46;1.70;;;1.63;;
78740;SDS011;68062;48.726;9.370;2023-07-29T10:24:15;1.50;;;1.43;;
78740;SDS011;68062;48.726;9.370;2023-07-29T10:26:47;1.93;;;1.57;;
78740;SDS011;68062;48.726;9.370;2023-07-29T10:29:17;4.87;;;1.83;;
78740;SDS011;68062;48.726;9.370;2023-07-29T10:31:46;4.83;;;1.87;;
78740;SDS011;68062;48.726;9.370;2023-07-29T10:34:13;1.93;;;1.80;;
78740;SDS011;68062;48.726;9.370;2023-07-29T10:36:40;3.23;;;2.93;;
78740;SDS011;68062;48.726;9.370;2023-07-29T10:39:08;4.17;;;2.17;;
78740;SDS011;68062;48.726;9.370;2023-07-29T10:41:54;2.50;;;2.30;;
78740;SDS011;68062;48.726;9.370;2023-07-29T10:47:16;2.60;;;2.10;;
78740;SDS011;68062;48.726;9.370;2023-07-29T10:49:43;1.80;;;1.70;;
78740;SDS011;68062;48.726;9.370;2023-07-29T10:52:12;2.73;;;2.10;;
78740;SDS011;68062;48.726;9.370;2023-07-29T10:54:43;3.60;;;2.50;;
78740;SDS011;68062;48.726;9.370;2023-07-29T10:57:13;3.20;;;2.30;;
78740;SDS011;68062;48.726;9.370;2023-07-29T10:59:58;2.67;;;2.17;;
78740;SDS011;68062;48.726;9.370;2023-07-29T11:02:28;2.10;;;1.73;;
78740;SDS011;68062;48.726;9.370;2023-07-29T11:04:55;2.60;;;2.40;;
78740;SDS011;68062;48.726;9.370;2023-07-29T11:07:23;1.93;;;1.90;;
78740;SDS011;68062;48.726;9.370;2023-07-29T11:09:54;1.83;;;1.70;;
78740;SDS011;68062;48.726;9.370;2023-07-29T11:12:36;2.33;;;2.10;;
78740;SDS011;68062;48.726;9.370;2023-07-29T11:15:19;3.73;;;1.83;;
78740;SDS011;68062;48.726;9.370;2023-07-29T11:17:47;2.93;;;2.13;;
78740;SDS011;68062;48.726;9.370;2023-07-29T11:20:16;2.87;;;2.03;;
78740;SDS011;68062;48.726;9.370;2023-07-29T11:22:43;2.67;;;1.67;;
78740;SDS011;68062;48.726;9.370;2023-07-29T11:25:11;2.60;;;2.07;;
78740;SDS011;68062;48.726;9.370;2023-07-29T11:27:38;1.80;;;1.60;;
78740;SDS011;68062;48.726;9.370;2023-07-29T11:30:06;1.50;;;1.40;;
78740;SDS011;68062;48.726;9.370;2023-07-29T11:32:35;2.03;;;1.93;;
78740;SDS011;68062;48.726;9.370;2023-07-29T11:35:03;1.87;;;1.57;;
78740;SDS011;68062;48.726;9.370;2023-07-29T11:37:32;4.60;;;2.20;;
78740;SDS011;68062;48.726;9.370;2023-07-29T11:39:59;1.63;;;1.60;;
78740;SDS011;68062;48.726;9.370;2023-07-29T11:42:27;2.70;;;1.80;;
78740;SDS011;68062;48.726;9.370;2023-07-29T11:44:55;1.70;;;1.60;;
78740;SDS011;68062;48.726;9.370;2023-07-29T11:47:22;3.67;;;2.57;;
78740;SDS011;68062;48.726;9.370;2023-07-29T11:49:50;3.20;;;2.77;;
78740;SDS011;68062;48.726;9.370;2023-07-29T11:52:17;1.93;;;1.80;;
78740;SDS011;68062;48.726;9.370;2023-07-29T11:54:45;2.37;;;2.17;;
78740;SDS011;68062;48.726;9.370;2023-07-29T11:57:12;2.20;;;2.00;;
78740;SDS011;68062;48.726;9.370;2023-07-29T11:59:39;2.17;;;1.97;;
78740;SDS011;68062;48.726;9.370;2023-07-29T12:02:08;6.33;;;5.53;;
78740;SDS011;68062;48.726;9.370;2023-07-29T12:04:37;3.40;;;2.20;;
78740;SDS011;68062;48.726;9.370;2023-07-29T12:07:06;2.63;;;2.23;;
78740;SDS011;68062;48.726;9.370;2023-07-29T12:09:33;1.90;;;1.80;;
78740;SDS011;68062;48.726;9.370;2023-07-29T12:12:00;2.37;;;1.90;;
78740;SDS011;68062;48.726;9.370;2023-07-29T12:14:28;3.17;;;2.47;;
78740;SDS011;68062;48.726;9.370;2023-07-29T12:16:54;1.97;;;1.87;;
78740;SDS011;68062;48.726;9.370;2023-07-29T12:19:21;2.40;;;2.20;;
78740;SDS011;68062;48.726;9.370;2023-07-29T12:21:48;2.93;;;1.90;;
78740;SDS011;68062;48.726;9.370;2023-07-29T12:24:16;2.00;;;1.93;;
78740;SDS011;68062;48.726;9.370;2023-07-29T12:26:43;2.70;;;2.10;;
78740;SDS011;68062;48.726;9.370;2023-07-29T12:29:11;2.60;;;2.30;;
78740;SDS011;68062;48.726;9.370;2023-07-29T12:31:38;2.37;;;2.17;;
78740;SDS011;68062;48.726;9.370;2023-07-29T12:34:05;2.07;;;1.93;;
78740;SDS011;68062;48.726;9.370;2023-07-29T12:36:41;2.60;;;2.20;;
78740;SDS011;68062;48.726;9.370;2023-07-29T12:39:16;2.53;;;2.10;;
78740;SDS011;68062;48.726;9.370;2023-07-29T12:41:46;2.50;;;1.97;;
78740;SDS011;68062;48.726;9.370;2023-07-29T12:44:14;2.20;;;2.00;;
78740;SDS011;68062;48.726;9.370;2023-07-29T12:46:41;1.73;;;1.67;;
78740;SDS011;68062;48.726;9.370;2023-07-29T12:49:08;1.77;;;1.67;;
78740;SDS011;68062;48.726;9.370;2023-07-29T12:51:34;2.27;;;2.07;;
78740;SDS011;68062;48.726;9.370;2023-07-29T12:54:02;2.43;;;2.13;;
78740;SDS011;68062;48.726;9.370;2023-07-29T12:56:30;2.27;;;1.57;;
78740;SDS011;68062;48.726;9.370;2023-07-29T12:58:59;2.33;;;2.07;;
78740;SDS011;68062;48.726;9.370;2023-07-29T13:01:26;2.90;;;1.57;;
78740;SDS011;68062;48.726;9.370;2023-07-29T13:03:53;2.60;;;2.10;;
78740;SDS011;68062;48.726;9.370;2023-07-29T13:06:21;2.03;;;1.70;;
78740;SDS011;68062;48.726;9.370;2023-07-29T13:08:48;2.23;;;2.03;;
78740;SDS011;68062;48.726;9.370;2023-07-29T13:11:14;3.20;;;2.37;;
78740;SDS011;68062;48.726;9.370;2023-07-29T13:13:43;2.17;;;2.00;;
78740;SDS011;68062;48.726;9.370;2023-07-29T13:16:10;2.20;;;2.00;;
78740;SDS011;68062;48.726;9.370;2023-07-29T13:18:37;3.77;;;2.20;;
78740;SDS011;68062;48.726;9.370;2023-07-29T13:21:04;1.90;;;1.70;;
78740;SDS011;68062;48.726;9.370;2023-07-29T13:23:30;1.83;;;1.73;;
78740;SDS011;68062;48.726;9.370;2023-07-29T13:25:57;2.13;;;2.00;;
78740;SDS011;68062;48.726;9.370;2023-07-29T13:28:23;1.87;;;1.80;;
78740;SDS011;68062;48.726;9.370;2023-07-29T13:30:51;2.63;;;2.43;;
78740;SDS011;68062;48.726;9.370;2023-07-29T13:33:18;2.40;;;2.20;;
78740;SDS011;68062;48.726;9.370;2023-07-29T13:35:44;2.70;;;2.50;;
78740;SDS011;68062;48.726;9.370;2023-07-29T13:38:11;2.00;;;1.90;;
78740;SDS011;68062;48.726;9.370;2023-07-29T13:40:37;2.17;;;2.00;;
78740;SDS011;68062;48.726;9.370;2023-07-29T13:43:04;2.90;;;2.07;;
78740;SDS011;68062;48.726;9.370;2023-07-29T13:45:31;1.97;;;1.87;;
78740;SDS011;68062;48.726;9.370;2023-07-29T13:47:59;1.90;;;1.80;;
78740;SDS011;68062;48.726;9.370;2023-07-29T13:50:25;1.87;;;1.77;;
78740;SDS011;68062;48.726;9.370;2023-07-29T13:52:52;1.60;;;1.50;;
78740;SDS011;68062;48.726;9.370;2023-07-29T13:55:18;2.20;;;2.00;;
78740;SDS011;68062;48.726;9.370;2023-07-29T13:57:45;2.20;;;1.70;;
78740;SDS011;68062;48.726;9.370;2023-07-29T14:00:12;1.97;;;1.90;;
78740;SDS011;68062;48.726;9.370;2023-07-29T14:02:39;4.00;;;2.97;;
78740;SDS011;68062;48.726;9.370;2023-07-29T14:05:07;2.53;;;2.10;;
78740;SDS011;68062;48.726;9.370;2023-07-29T14:07:34;2.70;;;2.03;;
78740;SDS011;68062;48.726;9.370;2023-07-29T14:10:00;2.70;;;1.77;;
78740;SDS011;68062;48.726;9.370;2023-07-29T14:12:27;2.33;;;2.20;;
78740;SDS011;68062;48.726;9.370;2023-07-29T14:14:53;1.83;;;1.77;;
78740;SDS011;68062;48.726;9.370;2023-07-29T14:17:20;2.60;;;1.77;;
78740;SDS011;68062;48.726;9.370;2023-07-29T14:19:46;3.13;;;2.17;;
78740;SDS011;68062;48.726;9.370;2023-07-29T14:22:14;1.93;;;1.60;;
78740;SDS011;68062;48.726;9.370;2023-07-29T14:24:41;1.93;;;1.83;;
78740;SDS011;68062;48.726;9.370;2023-07-29T14:27:07;2.27;;;2.07;;
78740;SDS011;68062;48.726;9.370;2023-07-29T14:29:34;1.93;;;1.77;;
78740;SDS011;68062;48.726;9.370;2023-07-29T14:32:00;2.10;;;1.90;;
78740;SDS011;68062;48.726;9.370;2023-07-29T14:34:27;2.30;;;2.10;;
78740;SDS011;68062;48.726;9.370;2023-07-29T14:36:54;5.60;;;3.50;;
78740;SDS011;68062;48.726;9.370;2023-07-29T14:39:22;2.50;;;2.30;;
78740;SDS011;68062;48.726;9.370;2023-07-29T14:41:48;2.67;;;2.10;;
78740;SDS011;68062;48.726;9.370;2023-07-29T14:44:15;3.33;;;2.67;;
78740;SDS011;68062;48.726;9.370;2023-07-29T14:46:41;2.60;;;2.40;;
78740;SDS011;68062;48.726;9.370;2023-07-29T14:49:08;1.87;;;1.83;;
78740;SDS011;68062;48.726;9.370;2023-07-29T14:51:34;3.23;;;2.20;;
78740;SDS011;68062;48.726;9.370;2023-07-29T14:54:01;2.20;;;2.00;;